Pagrindinis puslapis
METAR-TAF:

METAR-TAF

Oro uostai :

Takas, Tailandas

platuma: 16-53N, ilguma: 099-09E, Aukštis: 121 m

METAR: trūkstamas

Laikas: 12:38 (05:38 UTC)

Prognozė

Ataskaita buvo paskelbta 6 valandos ir 38 minutes, ne 23:00 UTC
Prognozė galioja nuo 30 metu 00 UTC su 30 metu 24 UTC
Vėjas 5 kt iš Vakarų/Pietvakarių
Matomumas 10 km arba daugiau
Išsisklaidę debesys ne aukštis 2600 ft
Laikinai
nuo 30 metu 01 UTC su 30 metu 03 UTC
Vėjas 15 kt iš Pietvakarių su gūsio iki 30 kt
Matomumas: 4000 m
Mažai debesys ne aukštis 2000 ft, Liūtiniai kamuoliniai debesys.
Su prošvaistėmis ne aukštis 2600 ft
perkūnija, lietus
Laikinai
nuo 30 metu 06 UTC su 30 metu 10 UTC
Vėjas 15 kt iš Pietų/Pietvakarių su gūsio iki 30 kt
Matomumas: 4000 m
Mažai debesys ne aukštis 2000 ft, Liūtiniai kamuoliniai debesys.
Su prošvaistėmis ne aukštis 2600 ft
perkūnija, lietus

TAF: VTPT 292300Z 3000/3024 24005KT 9999 SCT026 TEMPO 3001/3003 22015G30KT 4000 TSRA FEW020CB BKN026 TEMPO 3006/3010 21015G30KT 4000 TSRA FEW020CB BKN026

Orai ataskaitas ir orų prognozės (METAR, TAF).

turimą stotys yra geltonos ir raudonos taškus žemėlapyje.

Perkelti pele per norėdami pamatyti stoties vardą.

Tada spustelėkite, norėdami matyti oro stebėjimo ir prognozės.

Norėdami pakeisti žemėlapį: spustelėkite ant žalios mygtukų su juodo kryžiaus žemyn,; žalią mygtuką su brūkšneliu, jei norite nutolinti; arba žalių rodyklių gretimoms žemėlapius.


METAR-TAF: